createdAt,value
2018-07-14T00:01:16.364Z,72.51
2018-07-14T00:03:45.693Z,73.45
2018-07-14T00:06:15.017Z,73.49
2018-07-14T00:08:44.360Z,73.62
2018-07-14T00:11:13.671Z,72.85
2018-07-14T00:13:43.052Z,72.96
2018-07-14T00:16:12.371Z,72.97
2018-07-14T00:18:41.471Z,73.69
2018-07-14T00:21:10.553Z,73.38
2018-07-14T00:23:39.879Z,73.76
2018-07-14T00:26:09.200Z,72.76
2018-07-14T00:28:38.532Z,73.03
2018-07-14T00:31:07.878Z,72.85
2018-07-14T00:33:36.956Z,73.00
2018-07-14T00:36:06.359Z,72.69
2018-07-14T00:38:35.444Z,73.33
2018-07-14T00:41:04.769Z,73.24
2018-07-14T00:43:33.860Z,73.16
2018-07-14T00:46:02.947Z,73.14
2018-07-14T00:48:32.003Z,73.69
2018-07-14T00:51:01.341Z,72.85
2018-07-14T00:53:30.444Z,73.04
2018-07-14T00:55:59.835Z,73.18
2018-07-14T00:58:28.911Z,72.99
2018-07-14T01:00:58.223Z,73.33
2018-07-14T01:03:27.540Z,74.08
2018-07-14T01:05:56.889Z,74.51
2018-07-14T01:08:26.204Z,74.85
2018-07-14T01:10:55.540Z,74.34
2018-07-14T01:13:24.602Z,74.71
2018-07-14T01:15:53.932Z,74.82
2018-07-14T01:18:23.249Z,75.05
2018-07-14T01:20:52.583Z,75.01
2018-07-14T01:23:21.906Z,74.93
2018-07-14T01:25:51.233Z,74.44
2018-07-14T01:28:20.320Z,74.30
2018-07-14T01:30:49.657Z,75.15
2018-07-14T01:33:18.980Z,74.97
2018-07-14T01:35:48.303Z,75.42
2018-07-14T01:38:17.633Z,75.83
2018-07-14T01:40:46.711Z,75.87
2018-07-14T01:43:16.039Z,76.19
2018-07-14T01:45:45.390Z,76.42
2018-07-14T01:48:14.692Z,76.91
2018-07-14T01:50:44.042Z,76.34
2018-07-14T01:53:13.369Z,77.18
2018-07-14T01:55:42.748Z,76.36
2018-07-14T01:58:11.820Z,76.76
2018-07-14T02:00:40.908Z,76.54
2018-07-14T02:03:10.253Z,76.55
2018-07-14T02:05:39.599Z,76.64
2018-07-14T02:08:08.936Z,77.00
2018-07-14T02:10:38.272Z,76.61
2018-07-14T02:13:07.612Z,76.69
2018-07-14T02:15:36.950Z,77.02
2018-07-14T02:18:06.287Z,77.31
2018-07-14T02:20:35.617Z,77.51
2018-07-14T02:23:04.928Z,76.96
2018-07-14T02:25:34.004Z,77.88
2018-07-14T02:28:03.317Z,78.00
2018-07-14T02:30:32.400Z,78.05
2018-07-14T02:33:01.717Z,77.80
2018-07-14T02:35:30.787Z,77.77
2018-07-14T02:38:00.112Z,76.89
2018-07-14T02:40:29.188Z,77.05
2018-07-14T02:42:58.520Z,76.84
2018-07-14T02:45:27.851Z,77.61
2018-07-14T02:47:57.180Z,77.98
2018-07-14T02:50:26.517Z,77.15
2018-07-14T02:52:55.865Z,76.25
2018-07-14T02:55:25.189Z,76.97
2018-07-14T02:57:54.541Z,76.73
2018-07-14T03:00:23.882Z,77.26
2018-07-14T03:02:53.216Z,76.08
2018-07-14T03:05:22.527Z,76.76
2018-07-14T03:07:51.863Z,77.08
2018-07-14T03:10:21.197Z,77.36
2018-07-14T03:12:50.613Z,77.86
2018-07-14T03:15:19.867Z,78.47
2018-07-14T03:17:49.205Z,78.41
2018-07-14T03:20:18.537Z,78.28
2018-07-14T03:22:47.887Z,78.13
2018-07-14T03:25:17.240Z,78.69
2018-07-14T03:27:46.596Z,79.04
2018-07-14T03:30:15.924Z,78.89
2018-07-14T03:32:45.268Z,78.77
2018-07-14T03:35:14.592Z,78.73
2018-07-14T03:37:44.027Z,78.16
2018-07-14T03:40:13.348Z,78.59
2018-07-14T03:42:42.703Z,78.60
2018-07-14T03:45:12.140Z,77.89
2018-07-14T03:47:41.480Z,78.50
2018-07-14T03:50:10.816Z,78.85
2018-07-14T03:52:40.160Z,78.64
2018-07-14T03:55:09.479Z,78.61
2018-07-14T03:57:38.826Z,79.06
2018-07-14T04:00:08.625Z,78.62
2018-07-14T04:02:38.004Z,79.09
2018-07-14T04:05:07.420Z,79.28
2018-07-14T04:07:36.761Z,79.55
2018-07-14T04:10:06.116Z,79.64
2018-07-14T04:12:35.488Z,79.56
2018-07-14T04:15:04.836Z,79.87
2018-07-14T04:17:33.912Z,80.78
2018-07-14T04:20:03.547Z,79.48
2018-07-14T04:22:32.642Z,79.92
2018-07-14T04:25:02.251Z,79.71
2018-07-14T04:27:31.331Z,79.44
2018-07-14T04:30:00.671Z,79.19
2018-07-14T04:32:30.009Z,79.75
2018-07-14T04:34:59.347Z,80.41
2018-07-14T04:37:28.423Z,79.78
2018-07-14T04:39:57.768Z,79.64
2018-07-14T04:42:27.185Z,79.93
2018-07-14T04:44:56.455Z,80.46
2018-07-14T04:47:25.805Z,80.26
2018-07-14T04:49:55.149Z,80.25
2018-07-14T04:52:24.224Z,80.68
2018-07-14T04:54:53.557Z,80.92
2018-07-14T04:57:22.946Z,80.19
2018-07-14T04:59:52.366Z,80.13
2018-07-14T05:02:21.697Z,80.10
2018-07-14T05:04:51.044Z,79.92
2018-07-14T05:07:20.126Z,80.65
2018-07-14T05:09:49.463Z,80.38
2018-07-14T05:12:18.780Z,81.18
2018-07-14T05:14:48.112Z,80.23
2018-07-14T05:17:17.453Z,79.65
2018-07-14T05:19:46.798Z,79.32
2018-07-14T05:22:16.128Z,79.29
2018-07-14T05:24:45.484Z,79.44
2018-07-14T05:27:14.823Z,79.17
2018-07-14T05:29:44.171Z,79.80
2018-07-14T05:32:13.508Z,80.51
2018-07-14T05:34:42.872Z,81.23
2018-07-14T05:37:18.768Z,80.15
2018-07-14T05:39:48.100Z,79.73
2018-07-14T05:42:17.186Z,79.03
2018-07-14T05:44:46.299Z,76.92
2018-07-14T05:47:15.631Z,76.27
2018-07-14T05:49:45.015Z,76.20
2018-07-14T05:52:14.350Z,76.41
2018-07-14T05:54:43.692Z,76.09
2018-07-14T05:57:12.780Z,76.14
2018-07-14T05:59:41.886Z,75.84
2018-07-14T06:02:10.959Z,75.55
2018-07-14T06:04:40.286Z,75.23
2018-07-14T06:07:09.656Z,75.54
2018-07-14T06:09:38.974Z,77.60
2018-07-14T06:12:08.909Z,76.75
2018-07-14T06:14:38.240Z,75.16
2018-07-14T06:17:07.575Z,74.80
2018-07-14T06:19:36.937Z,73.70
2018-07-14T06:22:06.275Z,73.20
2018-07-14T06:24:35.608Z,72.45
2018-07-14T06:27:04.979Z,72.15
2018-07-14T06:29:34.312Z,71.50
2018-07-14T06:32:03.679Z,71.57
2018-07-14T06:34:32.996Z,71.39
2018-07-14T06:37:02.104Z,70.88
2018-07-14T06:39:31.448Z,70.67
2018-07-14T06:42:00.774Z,70.63
2018-07-14T06:44:30.112Z,70.34
2018-07-14T06:46:59.456Z,69.98
2018-07-14T06:49:28.779Z,69.12
2018-07-14T06:51:58.187Z,69.30
2018-07-14T06:54:27.526Z,69.13
2018-07-14T06:56:56.888Z,68.67
2018-07-14T06:59:26.207Z,67.03
2018-07-14T07:01:55.565Z,67.13
2018-07-14T07:04:24.893Z,66.81
2018-07-14T07:06:54.227Z,65.80
2018-07-14T07:09:23.559Z,66.46
2018-07-14T07:11:52.920Z,65.94
2018-07-14T07:14:22.331Z,66.87
2018-07-14T07:16:51.683Z,67.04
2018-07-14T07:19:21.031Z,67.39
2018-07-14T07:21:50.366Z,66.73
2018-07-14T07:24:19.792Z,66.16
2018-07-14T07:26:49.144Z,66.74
2018-07-14T07:29:18.497Z,66.18
2018-07-14T07:31:47.852Z,67.26
2018-07-14T07:34:17.324Z,67.15
2018-07-14T07:36:46.668Z,67.57
2018-07-14T07:39:16.002Z,66.73
2018-07-14T07:41:45.384Z,66.61
2018-07-14T07:44:14.716Z,66.08
2018-07-14T07:46:44.060Z,66.10
2018-07-14T07:49:13.395Z,65.51
2018-07-14T07:51:42.770Z,65.39
2018-07-14T07:54:12.107Z,64.81
2018-07-14T07:56:41.459Z,64.50
2018-07-14T07:59:10.780Z,63.50
2018-07-14T08:01:40.128Z,63.90
2018-07-14T08:04:09.474Z,64.76
2018-07-14T08:06:38.824Z,64.45
2018-07-14T08:09:08.652Z,63.92
2018-07-14T08:11:37.751Z,62.90
2018-07-14T08:14:07.096Z,62.94
2018-07-14T08:16:36.484Z,63.17
2018-07-14T08:19:05.526Z,63.02
2018-07-14T08:21:34.991Z,63.31
2018-07-14T08:24:04.324Z,61.28
2018-07-14T08:26:33.668Z,60.00
2018-07-14T08:29:03.017Z,60.93
2018-07-14T08:31:32.377Z,62.15
2018-07-14T08:34:01.729Z,60.48
2018-07-14T08:36:31.066Z,57.88
2018-07-14T08:39:00.429Z,59.16
2018-07-14T08:41:29.777Z,59.07
2018-07-14T08:43:59.129Z,58.57
2018-07-14T08:46:28.481Z,56.86
2018-07-14T08:48:57.836Z,56.35
2018-07-14T08:51:27.207Z,54.97
2018-07-14T08:53:56.531Z,56.12
2018-07-14T08:56:25.891Z,54.54
2018-07-14T08:58:55.244Z,55.66
2018-07-14T09:01:24.584Z,54.84
2018-07-14T09:03:53.950Z,53.24
2018-07-14T09:06:23.035Z,53.10
2018-07-14T09:08:52.394Z,51.60
2018-07-14T09:11:21.736Z,52.13
2018-07-14T09:13:51.098Z,50.49
2018-07-14T09:16:20.568Z,50.51
2018-07-14T09:18:49.852Z,48.55
2018-07-14T09:21:19.227Z,48.92
2018-07-14T09:23:48.592Z,47.88
2018-07-14T09:26:17.921Z,48.77
2018-07-14T09:28:47.263Z,50.07
2018-07-14T09:31:16.344Z,49.88
2018-07-14T09:33:45.697Z,50.27
2018-07-14T09:36:15.051Z,49.84
2018-07-14T09:38:44.423Z,48.97
2018-07-14T09:41:13.756Z,48.77
2018-07-14T09:43:42.870Z,47.88
2018-07-14T09:46:12.208Z,47.02
2018-07-14T09:48:41.556Z,47.47
2018-07-14T09:51:11.464Z,47.72
2018-07-14T09:53:40.560Z,47.42
2018-07-14T09:56:09.901Z,48.26
2018-07-14T09:58:39.269Z,46.73
2018-07-14T10:01:09.731Z,46.63
2018-07-14T10:03:39.736Z,46.06
2018-07-14T10:06:09.092Z,46.38
2018-07-14T10:08:38.457Z,45.41
2018-07-14T10:11:07.809Z,45.38
2018-07-14T10:13:37.139Z,47.09
2018-07-14T10:16:06.528Z,43.92
2018-07-14T10:18:35.877Z,43.28
2018-07-14T10:21:05.207Z,44.04
2018-07-14T10:23:34.576Z,43.97
2018-07-14T10:26:03.927Z,44.60
2018-07-14T10:28:33.269Z,47.37
2018-07-14T10:31:02.636Z,47.01
2018-07-14T10:33:31.973Z,43.96
2018-07-14T10:36:01.320Z,40.50
2018-07-14T10:38:30.408Z,41.68
2018-07-14T10:40:59.772Z,41.39
2018-07-14T10:43:29.111Z,41.92
2018-07-14T10:45:58.485Z,42.31
2018-07-14T10:48:27.833Z,43.65
2018-07-14T10:50:57.184Z,40.93
2018-07-14T10:53:26.529Z,40.84
2018-07-14T10:55:55.633Z,42.38
2018-07-14T10:58:24.965Z,42.34
2018-07-14T11:00:54.313Z,42.08
2018-07-14T11:03:23.635Z,41.14
2018-07-14T11:05:52.728Z,42.65
2018-07-14T11:08:22.071Z,42.28
2018-07-14T11:10:51.412Z,43.15
2018-07-14T11:13:20.755Z,42.71
2018-07-14T11:15:50.089Z,40.52
2018-07-14T11:18:19.421Z,41.71
2018-07-14T11:20:48.503Z,41.59
2018-07-14T11:23:17.839Z,40.89
2018-07-14T11:25:47.196Z,41.77
2018-07-14T11:28:16.545Z,41.20
2018-07-14T11:30:45.940Z,43.32
2018-07-14T11:33:15.298Z,45.31
2018-07-14T11:35:44.639Z,44.31
2018-07-14T11:38:13.980Z,43.97
2018-07-14T11:40:43.327Z,43.54
2018-07-14T11:43:12.680Z,43.83
2018-07-14T11:45:42.021Z,44.40
2018-07-14T11:48:11.108Z,45.48
2018-07-14T11:50:40.473Z,46.73
2018-07-14T11:53:09.821Z,49.63
2018-07-14T11:55:39.183Z,51.04
2018-07-14T11:58:09.503Z,52.57
2018-07-14T12:00:38.847Z,54.21
2018-07-14T12:03:07.935Z,55.94
2018-07-14T12:05:37.260Z,59.12
2018-07-14T12:08:06.592Z,60.11
2018-07-14T12:10:35.919Z,62.01
2018-07-14T12:13:05.264Z,61.31
2018-07-14T12:15:34.608Z,61.87
2018-07-14T12:18:03.948Z,59.76
2018-07-14T12:20:33.019Z,62.33
2018-07-14T12:23:02.370Z,66.28
2018-07-14T12:25:31.704Z,67.72
2018-07-14T12:28:01.047Z,73.31
2018-07-14T12:30:30.128Z,67.51
2018-07-14T12:32:59.459Z,63.36
2018-07-14T12:35:28.807Z,61.51
2018-07-14T12:37:58.140Z,60.16
2018-07-14T12:40:27.234Z,64.21
2018-07-14T12:42:56.323Z,61.14
2018-07-14T12:45:25.398Z,59.67
2018-07-14T12:47:54.731Z,58.41
2018-07-14T12:50:24.108Z,57.59
2018-07-14T12:52:53.456Z,57.67
2018-07-14T12:55:22.816Z,60.06
2018-07-14T12:57:52.160Z,59.06
2018-07-14T13:00:21.513Z,60.69
2018-07-14T13:02:50.836Z,58.58
2018-07-14T13:05:20.188Z,57.53
2018-07-14T13:07:49.528Z,57.39
2018-07-14T13:10:18.860Z,55.80
2018-07-14T13:12:48.176Z,54.79
2018-07-14T13:15:17.504Z,54.02
2018-07-14T13:17:46.836Z,51.66
2018-07-14T13:20:15.914Z,50.47
2018-07-14T13:22:45.297Z,49.17
2018-07-14T13:25:14.612Z,50.12
2018-07-14T13:27:44.249Z,48.51
2018-07-14T13:30:13.327Z,46.85
2018-07-14T13:32:42.660Z,44.01
2018-07-14T13:35:11.996Z,45.24
2018-07-14T13:37:41.316Z,45.28
2018-07-14T13:40:10.656Z,45.46
2018-07-14T13:42:39.980Z,44.85
2018-07-14T13:45:09.339Z,46.50
2018-07-14T13:47:38.422Z,47.81
2018-07-14T13:50:08.855Z,47.78
2018-07-14T13:52:37.964Z,46.66
2018-07-14T13:55:07.585Z,46.08
2018-07-14T13:57:36.980Z,46.18
2018-07-14T14:00:06.885Z,45.03
2018-07-14T14:02:36.887Z,42.06
2018-07-14T14:05:06.063Z,41.23
2018-07-14T14:07:35.691Z,42.54
2018-07-14T14:10:04.794Z,38.94
2018-07-14T14:12:34.128Z,39.51
2018-07-14T14:15:03.476Z,38.79
2018-07-14T14:17:32.800Z,37.52
2018-07-14T14:20:02.158Z,34.31
2018-07-14T14:22:31.460Z,32.68
2018-07-14T14:25:00.801Z,32.08
2018-07-14T14:27:30.128Z,35.34
2018-07-14T14:29:59.483Z,32.93
2018-07-14T14:32:28.819Z,33.19
2018-07-14T14:34:58.153Z,31.43
2018-07-14T14:37:27.521Z,32.97
2018-07-14T14:39:56.913Z,33.63
2018-07-14T14:42:26.273Z,32.29
2018-07-14T14:44:55.647Z,34.43
2018-07-14T14:47:25.015Z,32.35
2018-07-14T14:49:54.360Z,33.55
2018-07-14T14:52:23.685Z,33.78
2018-07-14T14:54:53.035Z,34.34
2018-07-14T14:57:22.385Z,35.02
2018-07-14T14:59:51.724Z,36.81
2018-07-14T15:02:21.048Z,38.32
2018-07-14T15:04:50.439Z,39.09
2018-07-14T15:07:19.487Z,38.71
2018-07-14T15:09:48.853Z,39.92
2018-07-14T15:12:18.177Z,41.49
2018-07-14T15:14:47.511Z,38.18
2018-07-14T15:17:16.583Z,36.90
2018-07-14T15:19:45.932Z,38.01
2018-07-14T15:22:15.304Z,40.43
2018-07-14T15:24:44.408Z,40.03
2018-07-14T15:27:13.742Z,37.48
2018-07-14T15:29:43.097Z,37.73
2018-07-14T15:32:12.235Z,40.43
2018-07-14T15:34:41.541Z,41.28
2018-07-14T15:37:10.903Z,43.68
2018-07-14T15:39:40.267Z,45.71
2018-07-14T15:42:09.747Z,41.90
2018-07-14T15:44:39.080Z,38.88
2018-07-14T15:47:08.416Z,38.95
2018-07-14T15:49:37.740Z,38.59
2018-07-14T15:52:07.448Z,34.20
2018-07-14T15:54:36.893Z,31.88
2018-07-14T15:57:06.228Z,35.31
2018-07-14T15:59:35.548Z,34.58
2018-07-14T16:02:05.072Z,35.46
2018-07-14T16:04:34.383Z,35.25
2018-07-14T16:07:03.724Z,31.16
2018-07-14T16:09:32.794Z,31.45
2018-07-14T16:12:02.128Z,32.24
2018-07-14T16:14:31.463Z,31.92
2018-07-14T16:17:00.793Z,31.83
2018-07-14T16:19:30.160Z,33.72
2018-07-14T16:21:59.480Z,35.39
2018-07-14T16:24:28.812Z,36.77
2018-07-14T16:26:57.904Z,33.42
2018-07-14T16:29:27.232Z,35.61
2018-07-14T16:31:56.580Z,33.47
2018-07-14T16:34:25.939Z,33.91
2018-07-14T16:36:55.313Z,34.74
2018-07-14T16:39:24.410Z,34.08
2018-07-14T16:41:53.491Z,35.49
2018-07-14T16:44:22.820Z,34.80
2018-07-14T16:46:52.168Z,33.87
2018-07-14T16:49:21.483Z,33.90
2018-07-14T16:51:50.833Z,33.23
2018-07-14T16:54:20.151Z,34.96
2018-07-14T16:56:49.479Z,33.25
2018-07-14T16:59:18.809Z,33.75
2018-07-14T17:01:48.135Z,34.20
2018-07-14T17:04:17.479Z,34.03
2018-07-14T17:06:46.808Z,34.27
2018-07-14T17:09:16.196Z,34.44
2018-07-14T17:11:45.555Z,34.46
2018-07-14T17:14:14.959Z,34.61
2018-07-14T17:16:44.268Z,35.47
2018-07-14T17:19:13.620Z,37.89
2018-07-14T17:21:42.723Z,36.75
2018-07-14T17:24:11.807Z,36.47
2018-07-14T17:26:40.899Z,37.24
2018-07-14T17:29:09.984Z,37.22
2018-07-14T17:31:39.317Z,37.13
2018-07-14T17:34:09.456Z,38.72
2018-07-14T17:36:38.792Z,37.53
2018-07-14T17:39:09.139Z,37.35
2018-07-14T17:41:38.682Z,37.78
2018-07-14T17:44:09.080Z,38.75
2018-07-14T17:46:38.156Z,38.47
2018-07-14T17:49:07.484Z,38.39
2018-07-14T17:51:37.047Z,38.80
2018-07-14T17:54:06.190Z,39.75
2018-07-14T17:56:35.516Z,37.38
2018-07-14T17:59:04.872Z,37.17
2018-07-14T18:01:33.964Z,37.70
2018-07-14T18:04:03.039Z,38.61
2018-07-14T18:06:32.407Z,37.38
2018-07-14T18:09:01.753Z,38.71
2018-07-14T18:11:31.093Z,38.09
2018-07-14T18:14:00.432Z,38.90
2018-07-14T18:16:29.850Z,38.60
2018-07-14T18:18:58.871Z,38.87
2018-07-14T18:21:28.219Z,38.95
2018-07-14T18:23:57.601Z,39.02
2018-07-14T18:26:26.927Z,39.12
2018-07-14T18:28:56.281Z,39.86
2018-07-14T18:31:25.620Z,40.25
2018-07-14T18:33:54.948Z,40.96
2018-07-14T18:36:24.316Z,40.87
2018-07-14T18:38:53.660Z,40.43
2018-07-14T18:41:23.055Z,40.42
2018-07-14T18:43:52.441Z,40.24
2018-07-14T18:46:21.768Z,40.69
2018-07-14T18:48:50.864Z,40.05
2018-07-14T18:51:19.951Z,40.46
2018-07-14T18:53:49.290Z,40.55
2018-07-14T18:56:18.640Z,39.96
2018-07-14T18:58:47.999Z,40.67
2018-07-14T19:01:17.332Z,40.44
2018-07-14T19:03:46.677Z,40.71
2018-07-14T19:06:16.025Z,40.51
2018-07-14T19:08:45.419Z,40.24
2018-07-14T19:11:14.738Z,40.91
2018-07-14T19:13:44.087Z,41.20
2018-07-14T19:16:13.424Z,41.40
2018-07-14T19:18:42.771Z,41.15
2018-07-14T19:21:11.960Z,46.15
2018-07-14T19:23:40.966Z,47.09
2018-07-14T19:26:10.275Z,48.51
2018-07-14T19:28:39.477Z,49.88
2018-07-14T19:31:08.953Z,51.27
2018-07-14T19:33:38.176Z,51.30
2018-07-14T19:36:08.753Z,52.13
2018-07-14T19:38:38.123Z,54.50
2018-07-14T19:41:07.508Z,54.67
2018-07-14T19:43:36.931Z,54.67
2018-07-14T19:46:06.284Z,54.83
2018-07-14T19:48:35.640Z,55.12
2018-07-14T19:51:05.030Z,54.59
2018-07-14T19:53:34.346Z,53.52
2018-07-14T19:56:03.766Z,54.61
2018-07-14T19:58:32.790Z,54.99
2018-07-14T20:01:01.899Z,56.04
2018-07-14T20:03:31.243Z,56.73
2018-07-14T20:06:00.592Z,57.45
2018-07-14T20:08:29.678Z,56.80
2018-07-14T20:10:59.041Z,56.85
2018-07-14T20:13:28.460Z,56.36
2018-07-14T20:15:57.803Z,56.39
2018-07-14T20:18:27.144Z,55.49
2018-07-14T20:20:56.474Z,54.91
2018-07-14T20:23:25.801Z,55.26
2018-07-14T20:25:54.874Z,55.61
2018-07-14T20:28:24.236Z,56.15
2018-07-14T20:30:53.591Z,59.36
2018-07-14T20:33:22.698Z,59.84
2018-07-14T20:35:51.787Z,59.83
2018-07-14T20:38:21.129Z,60.41
2018-07-14T20:40:50.488Z,61.16
2018-07-14T20:43:19.703Z,62.56
2018-07-14T20:45:49.035Z,63.02
2018-07-14T20:48:18.375Z,64.12
2018-07-14T20:50:47.487Z,64.29
2018-07-14T20:53:16.563Z,63.11
2018-07-14T20:55:45.916Z,63.08
2018-07-14T20:58:15.252Z,62.04
2018-07-14T21:00:44.595Z,62.17
2018-07-14T21:03:13.923Z,62.95
2018-07-14T21:05:43.521Z,63.76
2018-07-14T21:08:12.843Z,64.02
2018-07-14T21:10:42.176Z,63.84
2018-07-14T21:13:11.503Z,63.89
2018-07-14T21:15:40.914Z,64.49
2018-07-14T21:18:10.244Z,64.65
2018-07-14T21:20:39.656Z,64.98
2018-07-14T21:23:08.935Z,65.55
2018-07-14T21:25:38.296Z,64.77
2018-07-14T21:28:08.607Z,65.40
2018-07-14T21:30:37.703Z,64.95
2018-07-14T21:33:07.112Z,65.03
2018-07-14T21:35:36.628Z,64.85
2018-07-14T21:38:05.983Z,64.76
2018-07-14T21:40:35.328Z,65.29
2018-07-14T21:43:04.666Z,64.16
2018-07-14T21:45:34.016Z,65.01
2018-07-14T21:48:03.109Z,65.00
2018-07-14T21:50:32.470Z,64.63
2018-07-14T21:53:01.792Z,65.33
2018-07-14T21:55:31.124Z,66.21
2018-07-14T21:58:00.231Z,66.48
2018-07-14T22:00:35.144Z,66.27
2018-07-14T22:03:06.115Z,66.87
2018-07-14T22:05:35.440Z,67.43
2018-07-14T22:08:04.791Z,68.05
2018-07-14T22:10:34.131Z,68.33
2018-07-14T22:13:03.471Z,68.58
2018-07-14T22:15:32.810Z,68.05
2018-07-14T22:18:02.139Z,67.50
2018-07-14T22:20:31.488Z,66.69
2018-07-14T22:23:00.827Z,64.71
2018-07-14T22:25:30.161Z,65.23
2018-07-14T22:27:59.494Z,65.14
2018-07-14T22:30:28.607Z,65.91
2018-07-14T22:32:57.969Z,65.16
2018-07-14T22:35:27.283Z,65.06
2018-07-14T22:37:56.366Z,64.46
2018-07-14T22:40:25.447Z,65.35
2018-07-14T22:42:54.811Z,66.35
2018-07-14T22:45:24.135Z,67.45
2018-07-14T22:47:53.463Z,68.25
2018-07-14T22:50:22.807Z,68.21
2018-07-14T22:52:52.227Z,69.53
2018-07-14T22:55:21.548Z,68.72
2018-07-14T22:57:57.650Z,69.67
2018-07-14T23:00:26.979Z,70.53
2018-07-14T23:02:56.317Z,70.76
2018-07-14T23:05:25.856Z,69.80
2018-07-14T23:07:55.201Z,69.31
2018-07-14T23:10:24.532Z,70.43
2018-07-14T23:12:53.862Z,69.56
2018-07-14T23:15:23.199Z,68.09
2018-07-14T23:17:52.532Z,68.39
2018-07-14T23:20:21.874Z,68.81
2018-07-14T23:22:51.321Z,68.50
2018-07-14T23:25:20.651Z,68.38
2018-07-14T23:27:49.767Z,68.63
2018-07-14T23:30:19.103Z,68.99
2018-07-14T23:32:48.419Z,68.85
2018-07-14T23:35:17.760Z,70.48
2018-07-14T23:37:46.873Z,70.70
2018-07-14T23:40:16.203Z,71.51
2018-07-14T23:42:45.543Z,71.20
2018-07-14T23:45:14.872Z,70.24
2018-07-14T23:47:44.225Z,71.11
2018-07-14T23:50:13.560Z,71.28
2018-07-14T23:52:42.638Z,71.63
2018-07-14T23:55:11.967Z,71.91
2018-07-14T23:57:41.291Z,71.62
